createdAt,value
2023-03-06T00:02:22.342Z,74.31
2023-03-06T00:04:48.806Z,74.40
2023-03-06T00:07:15.216Z,74.21
2023-03-06T00:09:41.770Z,74.33
2023-03-06T00:12:08.874Z,74.25
2023-03-06T00:14:35.337Z,74.37
2023-03-06T00:17:01.839Z,74.39
2023-03-06T00:19:28.271Z,74.40
2023-03-06T00:21:54.787Z,74.53
2023-03-06T00:24:21.333Z,74.43
2023-03-06T00:26:47.856Z,74.48
2023-03-06T00:29:14.241Z,74.37
2023-03-06T00:31:40.676Z,74.59
2023-03-06T00:34:07.185Z,74.64
2023-03-06T00:36:33.659Z,74.67
2023-03-06T00:39:00.188Z,74.59
2023-03-06T00:41:27.111Z,74.73
2023-03-06T00:43:53.588Z,74.61
2023-03-06T00:46:20.150Z,74.82
2023-03-06T00:48:46.540Z,74.68
2023-03-06T00:51:14.023Z,74.52
2023-03-06T00:53:40.466Z,74.45
2023-03-06T00:56:09.012Z,74.49
2023-03-06T00:58:35.529Z,74.58
2023-03-06T01:01:01.897Z,74.33
2023-03-06T01:03:28.276Z,74.48
2023-03-06T01:05:54.716Z,74.51
2023-03-06T01:08:21.162Z,74.17
2023-03-06T01:10:47.766Z,74.55
2023-03-06T01:13:14.164Z,74.40
2023-03-06T01:15:40.923Z,74.37
2023-03-06T01:18:07.559Z,74.19
2023-03-06T01:20:34.046Z,74.28
2023-03-06T01:23:01.086Z,74.25
2023-03-06T01:25:27.722Z,74.43
2023-03-06T01:27:54.245Z,74.38
2023-03-06T01:30:20.835Z,74.30
2023-03-06T01:32:48.253Z,74.32
2023-03-06T01:35:14.913Z,74.33
2023-03-06T01:37:41.392Z,74.32
2023-03-06T01:40:10.274Z,74.22
2023-03-06T01:42:36.887Z,74.38
2023-03-06T01:45:08.779Z,74.44
2023-03-06T01:47:35.366Z,74.22
2023-03-06T01:50:04.020Z,74.23
2023-03-06T01:52:36.135Z,74.48
2023-03-06T01:55:08.209Z,74.30
2023-03-06T01:57:40.720Z,74.17
2023-03-06T02:00:11.213Z,74.38
2023-03-06T02:02:39.334Z,73.86
2023-03-06T02:05:07.278Z,74.10
2023-03-06T02:07:36.146Z,74.20
2023-03-06T02:10:02.695Z,74.11
2023-03-06T02:12:29.280Z,74.30
2023-03-06T02:14:56.809Z,74.03
2023-03-06T02:17:23.750Z,74.38
2023-03-06T02:20:05.755Z,74.08
2023-03-06T02:22:55.050Z,74.16
2023-03-06T02:25:39.675Z,74.11
2023-03-06T02:28:08.859Z,73.98
2023-03-06T02:30:36.551Z,74.14
2023-03-06T02:33:04.490Z,74.21
2023-03-06T02:35:36.332Z,74.00
2023-03-06T02:38:15.036Z,74.19
2023-03-06T02:40:48.709Z,74.17
2023-03-06T02:43:18.423Z,74.27
2023-03-06T02:45:48.961Z,74.28
2023-03-06T02:48:16.741Z,73.97
2023-03-06T02:50:44.629Z,74.19
2023-03-06T02:53:13.916Z,74.12
2023-03-06T02:55:40.778Z,74.20
2023-03-06T02:58:07.648Z,73.90
2023-03-06T03:00:34.331Z,74.04
2023-03-06T03:03:01.448Z,73.96
2023-03-06T03:05:28.015Z,74.20
2023-03-06T03:07:54.441Z,73.69
2023-03-06T03:10:21.114Z,73.95
2023-03-06T03:12:47.634Z,73.89
2023-03-06T03:15:14.328Z,73.78
2023-03-06T03:17:41.196Z,74.03
2023-03-06T03:20:11.502Z,73.61
2023-03-06T03:22:38.474Z,73.73
2023-03-06T03:25:05.829Z,73.79
2023-03-06T03:27:32.486Z,73.62
2023-03-06T03:30:00.284Z,73.51
2023-03-06T03:32:27.266Z,73.50
2023-03-06T03:34:56.056Z,73.49
2023-03-06T03:37:22.786Z,73.33
2023-03-06T03:39:49.150Z,73.68
2023-03-06T03:42:15.652Z,73.48
2023-03-06T03:44:42.299Z,73.38
2023-03-06T03:47:08.878Z,73.84
2023-03-06T03:49:35.264Z,73.56
2023-03-06T03:52:01.704Z,73.48
2023-03-06T03:54:28.790Z,73.51
2023-03-06T03:56:55.255Z,73.39
2023-03-06T03:59:21.733Z,73.24
2023-03-06T04:01:48.450Z,73.29
2023-03-06T04:04:15.233Z,73.25
2023-03-06T04:06:41.723Z,72.99
2023-03-06T04:09:08.215Z,73.03
2023-03-06T04:11:34.784Z,73.06
2023-03-06T04:14:01.371Z,73.28
2023-03-06T04:16:27.867Z,72.94
2023-03-06T04:18:54.294Z,73.00
2023-03-06T04:21:20.784Z,73.12
2023-03-06T04:23:47.235Z,72.78
2023-03-06T04:26:13.629Z,72.96
2023-03-06T04:28:40.026Z,72.79
2023-03-06T04:31:06.535Z,72.76
2023-03-06T04:33:33.037Z,72.85
2023-03-06T04:35:59.476Z,72.60
2023-03-06T04:38:25.887Z,72.86
2023-03-06T04:40:52.389Z,72.49
2023-03-06T04:43:19.041Z,72.76
2023-03-06T04:45:45.509Z,72.78
2023-03-06T04:48:17.586Z,72.93
2023-03-06T04:50:44.613Z,72.56
2023-03-06T04:53:11.076Z,72.79
2023-03-06T04:55:37.595Z,72.81
2023-03-06T04:58:04.135Z,72.77
2023-03-06T05:00:31.604Z,72.79
2023-03-06T05:03:01.918Z,72.57
2023-03-06T05:05:29.261Z,72.71
2023-03-06T05:07:56.166Z,72.55
2023-03-06T05:10:23.466Z,72.64
2023-03-06T05:12:49.917Z,72.68
2023-03-06T05:15:16.894Z,72.77
2023-03-06T05:17:43.341Z,72.52
2023-03-06T05:20:11.628Z,72.65
2023-03-06T05:22:38.152Z,72.46
2023-03-06T05:25:05.253Z,72.29
2023-03-06T05:27:32.010Z,72.37
2023-03-06T05:29:58.783Z,72.27
2023-03-06T05:32:25.418Z,72.36
2023-03-06T05:34:52.042Z,72.69
2023-03-06T05:37:18.718Z,72.37
2023-03-06T05:39:45.404Z,72.58
2023-03-06T05:42:11.835Z,72.43
2023-03-06T05:44:38.314Z,72.14
2023-03-06T05:47:05.072Z,72.27
2023-03-06T05:49:33.738Z,72.31
2023-03-06T05:52:04.045Z,72.44
2023-03-06T05:54:34.429Z,72.27
2023-03-06T05:57:02.413Z,72.14
2023-03-06T05:59:29.147Z,72.18
2023-03-06T06:01:56.502Z,72.38
2023-03-06T06:04:26.249Z,72.07
2023-03-06T06:07:00.034Z,72.09
2023-03-06T06:09:27.789Z,72.08
2023-03-06T06:12:00.153Z,71.99
2023-03-06T06:14:26.632Z,72.12
2023-03-06T06:16:53.376Z,71.98
2023-03-06T06:19:20.470Z,72.26
2023-03-06T06:21:49.095Z,72.19
2023-03-06T06:24:17.413Z,72.07
2023-03-06T06:26:44.073Z,72.15
2023-03-06T06:29:11.548Z,72.35
2023-03-06T06:31:39.454Z,72.28
2023-03-06T06:34:07.369Z,72.29
2023-03-06T06:36:34.233Z,71.77
2023-03-06T06:39:00.825Z,71.86
2023-03-06T06:41:46.160Z,71.71
2023-03-06T06:44:16.236Z,71.94
2023-03-06T06:49:32.025Z,71.96
2023-03-06T06:51:58.795Z,71.83
2023-03-06T06:54:25.309Z,71.80
2023-03-06T06:56:51.974Z,71.50
2023-03-06T06:59:18.443Z,71.61
2023-03-06T07:01:44.976Z,71.53
2023-03-06T07:04:12.984Z,71.27
2023-03-06T07:06:39.592Z,71.21
2023-03-06T07:09:06.021Z,71.29
2023-03-06T07:11:32.578Z,71.30
2023-03-06T07:13:59.218Z,71.07
2023-03-06T07:16:25.599Z,71.01
2023-03-06T07:18:52.061Z,70.97
2023-03-06T07:21:18.588Z,70.83
2023-03-06T07:23:45.216Z,70.82
2023-03-06T07:26:11.960Z,70.62
2023-03-06T07:28:51.525Z,70.63
2023-03-06T07:31:21.973Z,70.44
2023-03-06T07:33:49.772Z,70.51
2023-03-06T07:36:16.395Z,70.32
2023-03-06T07:38:42.885Z,70.21
2023-03-06T07:41:13.337Z,70.12
2023-03-06T07:43:41.281Z,70.22
2023-03-06T07:46:08.383Z,69.98
2023-03-06T07:48:35.983Z,69.85
2023-03-06T07:51:05.300Z,70.17
2023-03-06T07:53:32.671Z,69.73
2023-03-06T07:56:00.016Z,69.81
2023-03-06T07:58:26.679Z,70.12
2023-03-06T08:00:53.174Z,69.60
2023-03-06T08:03:19.695Z,69.40
2023-03-06T08:05:46.180Z,69.41
2023-03-06T08:08:12.850Z,69.37
2023-03-06T08:10:39.301Z,69.20
2023-03-06T08:13:05.705Z,68.92
2023-03-06T08:15:32.107Z,68.77
2023-03-06T08:17:58.623Z,68.64
2023-03-06T08:20:25.107Z,68.67
2023-03-06T08:22:51.786Z,68.43
2023-03-06T08:25:18.381Z,68.32
2023-03-06T08:27:46.721Z,68.30
2023-03-06T08:30:14.123Z,68.36
2023-03-06T08:32:40.851Z,68.11
2023-03-06T08:35:08.266Z,68.20
2023-03-06T08:37:35.080Z,68.00
2023-03-06T08:40:04.499Z,67.56
2023-03-06T08:42:31.978Z,67.57
2023-03-06T08:44:58.559Z,67.58
2023-03-06T08:47:25.127Z,67.44
2023-03-06T08:49:51.632Z,67.33
2023-03-06T08:52:19.759Z,67.28
2023-03-06T08:54:46.635Z,66.95
2023-03-06T08:57:13.068Z,67.13
2023-03-06T08:59:39.680Z,67.21
2023-03-06T09:02:07.516Z,67.29
2023-03-06T09:04:36.235Z,66.88
2023-03-06T09:07:02.836Z,67.58
2023-03-06T09:09:29.371Z,67.25
2023-03-06T09:11:56.312Z,66.99
2023-03-06T09:14:22.800Z,67.06
2023-03-06T09:16:49.285Z,66.75
2023-03-06T09:19:15.792Z,66.67
2023-03-06T09:21:42.233Z,66.77
2023-03-06T09:24:08.845Z,66.91
2023-03-06T09:26:45.629Z,66.61
2023-03-06T09:29:13.373Z,66.61
2023-03-06T09:31:39.989Z,66.70
2023-03-06T09:34:06.508Z,66.99
2023-03-06T09:36:42.687Z,66.54
2023-03-06T09:39:13.395Z,66.62
2023-03-06T09:41:41.594Z,66.55
2023-03-06T09:44:15.768Z,66.70
2023-03-06T09:46:54.932Z,66.56
2023-03-06T09:49:30.358Z,66.96
2023-03-06T09:52:34.057Z,66.92
2023-03-06T09:55:35.299Z,66.74
2023-03-06T09:58:20.069Z,66.84
2023-03-06T10:01:01.848Z,66.91
2023-03-06T10:03:39.469Z,67.06
2023-03-06T10:06:30.113Z,66.98
2023-03-06T10:09:38.147Z,66.83
2023-03-06T10:12:11.041Z,66.83
2023-03-06T10:14:47.730Z,67.04
2023-03-06T10:17:21.051Z,67.05
2023-03-06T10:19:47.695Z,66.69
2023-03-06T10:22:31.036Z,67.07
2023-03-06T10:25:16.686Z,66.99
2023-03-06T10:27:47.847Z,67.03
2023-03-06T10:30:26.975Z,67.13
2023-03-06T10:32:58.509Z,66.55
2023-03-06T10:35:31.217Z,66.95
2023-03-06T10:38:02.114Z,66.74
2023-03-06T10:40:40.718Z,66.85
2023-03-06T10:43:12.455Z,66.57
2023-03-06T10:45:50.896Z,66.67
2023-03-06T10:48:24.251Z,66.39
2023-03-06T10:50:51.323Z,66.39
2023-03-06T10:53:26.956Z,66.33
2023-03-06T10:55:58.822Z,66.28
2023-03-06T10:58:30.017Z,66.39
2023-03-06T11:01:21.037Z,66.26
2023-03-06T11:03:48.041Z,65.88
2023-03-06T11:06:40.923Z,65.92
2023-03-06T11:09:21.482Z,65.73
2023-03-06T11:11:48.817Z,65.71
2023-03-06T11:14:18.336Z,65.51
2023-03-06T11:16:53.117Z,65.54
2023-03-06T11:19:25.751Z,65.14
2023-03-06T11:22:18.573Z,65.32
2023-03-06T11:24:50.341Z,64.80
2023-03-06T11:27:25.827Z,64.75
2023-03-06T11:29:55.606Z,64.21
2023-03-06T11:32:29.374Z,64.36
2023-03-06T11:35:11.799Z,64.01
2023-03-06T11:37:53.968Z,64.26
2023-03-06T11:40:20.377Z,64.00
2023-03-06T11:43:05.773Z,64.13
2023-03-06T11:45:44.974Z,64.54
2023-03-06T11:48:14.375Z,64.23
2023-03-06T11:50:47.124Z,63.92
2023-03-06T11:53:13.568Z,64.00
2023-03-06T11:56:02.059Z,63.99
2023-03-06T11:58:56.017Z,63.87
2023-03-06T12:01:46.545Z,63.51
2023-03-06T12:04:38.950Z,63.29
2023-03-06T12:07:23.854Z,62.79
2023-03-06T12:09:50.214Z,62.75
2023-03-06T12:12:32.055Z,62.75
2023-03-06T12:15:13.813Z,62.77
2023-03-06T12:18:09.500Z,62.72
2023-03-06T12:21:05.119Z,62.37
2023-03-06T12:23:51.327Z,62.73
2023-03-06T12:27:15.207Z,62.11
2023-03-06T12:30:00.574Z,61.70
2023-03-06T12:32:39.958Z,61.93
2023-03-06T12:35:37.085Z,61.61
2023-03-06T12:38:06.428Z,61.76
2023-03-06T12:40:51.717Z,61.95
2023-03-06T12:43:37.782Z,62.28
2023-03-06T12:46:16.313Z,62.17
2023-03-06T12:48:48.369Z,62.12
2023-03-06T12:51:18.863Z,62.00
2023-03-06T12:53:45.728Z,61.96
2023-03-06T12:56:16.050Z,61.89
2023-03-06T12:58:53.462Z,61.42
2023-03-06T13:02:04.865Z,61.48
2023-03-06T13:04:48.177Z,61.41
2023-03-06T13:07:58.330Z,61.15
2023-03-06T13:10:36.084Z,61.11
2023-03-06T13:13:05.018Z,61.03
2023-03-06T13:15:43.577Z,61.24
2023-03-06T13:18:22.348Z,61.08
2023-03-06T13:20:50.820Z,60.86
2023-03-06T13:23:29.743Z,60.62
2023-03-06T13:26:01.362Z,60.75
2023-03-06T13:28:51.110Z,60.44
2023-03-06T13:31:28.672Z,60.42
2023-03-06T13:34:25.728Z,60.39
2023-03-06T13:36:52.203Z,60.24
2023-03-06T13:39:18.793Z,60.28
2023-03-06T13:42:16.534Z,59.93
2023-03-06T13:44:44.599Z,59.80
2023-03-06T13:47:39.773Z,59.80
2023-03-06T13:50:26.931Z,59.36
2023-03-06T13:53:13.362Z,59.89
2023-03-06T13:56:29.337Z,59.45
2023-03-06T13:58:58.568Z,59.32
2023-03-06T14:01:49.542Z,59.47
2023-03-06T14:04:19.276Z,59.44
2023-03-06T14:07:15.483Z,59.46
2023-03-06T14:09:45.595Z,59.32
2023-03-06T14:12:26.678Z,59.13
2023-03-06T14:14:57.425Z,59.33
2023-03-06T14:17:29.019Z,58.83
2023-03-06T14:19:59.958Z,59.08
2023-03-06T14:22:26.370Z,58.73
2023-03-06T14:24:57.965Z,58.46
2023-03-06T14:27:42.160Z,58.86
2023-03-06T14:30:12.786Z,58.67
2023-03-06T14:32:40.652Z,58.67
2023-03-06T14:35:18.418Z,58.80
2023-03-06T14:37:50.266Z,58.90
2023-03-06T14:40:26.095Z,58.60
2023-03-06T14:43:26.987Z,58.34
2023-03-06T14:45:58.980Z,58.36
2023-03-06T14:48:41.301Z,58.35
2023-03-06T14:51:15.698Z,58.48
2023-03-06T14:53:46.695Z,58.48
2023-03-06T14:56:20.301Z,58.70
2023-03-06T14:59:06.116Z,58.52
2023-03-06T15:01:40.542Z,58.76
2023-03-06T15:04:19.007Z,58.48
2023-03-06T15:06:45.671Z,58.30
2023-03-06T15:09:24.339Z,58.09
2023-03-06T15:12:19.835Z,58.23
2023-03-06T15:15:04.114Z,58.18
2023-03-06T15:17:37.974Z,57.98
2023-03-06T15:20:08.769Z,58.08
2023-03-06T15:22:41.078Z,57.88
2023-03-06T15:25:23.329Z,58.16
2023-03-06T15:27:52.474Z,58.29
2023-03-06T15:30:25.015Z,58.23
2023-03-06T15:32:52.249Z,58.36
2023-03-06T15:35:24.448Z,58.27
2023-03-06T15:37:51.235Z,58.13
2023-03-06T15:40:19.988Z,58.10
2023-03-06T15:42:47.047Z,58.37
2023-03-06T15:45:18.115Z,58.22
2023-03-06T15:47:47.958Z,58.35
2023-03-06T15:50:21.031Z,58.37
2023-03-06T15:52:48.708Z,58.47
2023-03-06T15:55:24.733Z,58.23
2023-03-06T15:57:59.571Z,58.55
2023-03-06T16:00:34.697Z,58.55
2023-03-06T16:03:01.844Z,58.44
2023-03-06T16:05:29.253Z,58.61
2023-03-06T16:07:56.108Z,58.49
2023-03-06T16:10:25.275Z,58.93
2023-03-06T16:12:55.234Z,58.96
2023-03-06T16:15:28.929Z,58.87
2023-03-06T16:17:58.489Z,59.23
2023-03-06T16:20:27.478Z,59.39
2023-03-06T16:22:54.755Z,59.51
2023-03-06T16:25:22.989Z,59.59
2023-03-06T16:27:55.528Z,60.16
2023-03-06T16:30:23.912Z,60.15
2023-03-06T16:32:50.309Z,60.57
2023-03-06T16:35:17.049Z,60.53
2023-03-06T16:37:45.073Z,60.92
2023-03-06T16:40:26.546Z,61.21
2023-03-06T16:42:54.797Z,61.42
2023-03-06T16:45:23.058Z,61.64
2023-03-06T16:47:49.577Z,61.85
2023-03-06T16:50:18.720Z,61.77
2023-03-06T16:52:45.307Z,62.12
2023-03-06T16:55:11.772Z,62.31
2023-03-06T16:57:38.210Z,62.33
2023-03-06T17:00:16.376Z,62.58
2023-03-06T17:02:43.141Z,62.75
2023-03-06T17:05:11.241Z,62.74
2023-03-06T17:07:38.478Z,62.76
2023-03-06T17:10:06.515Z,62.95
2023-03-06T17:12:33.058Z,63.09
2023-03-06T17:14:59.614Z,63.28
2023-03-06T17:17:26.242Z,63.42
2023-03-06T17:19:53.093Z,63.55
2023-03-06T17:22:20.435Z,63.75
2023-03-06T17:24:52.147Z,63.86
2023-03-06T17:27:19.947Z,64.07
2023-03-06T17:29:46.957Z,64.02
2023-03-06T17:32:13.822Z,64.02
2023-03-06T17:34:40.902Z,64.53
2023-03-06T17:37:07.302Z,64.27
2023-03-06T17:39:38.048Z,64.36
2023-03-06T17:42:06.527Z,64.58
2023-03-06T17:44:34.314Z,64.54
2023-03-06T17:47:00.965Z,65.09
2023-03-06T17:49:27.389Z,65.01
2023-03-06T17:51:56.485Z,65.04
2023-03-06T17:54:26.104Z,64.89
2023-03-06T17:57:01.019Z,65.14
2023-03-06T17:59:28.070Z,65.31
2023-03-06T18:01:58.757Z,65.45
2023-03-06T18:04:26.131Z,65.27
2023-03-06T18:06:52.785Z,65.66
2023-03-06T18:09:19.390Z,65.70
2023-03-06T18:11:46.497Z,66.06
2023-03-06T18:14:12.894Z,65.78
2023-03-06T18:16:39.575Z,65.96
2023-03-06T18:19:06.103Z,66.21
2023-03-06T18:21:32.786Z,66.04
2023-03-06T18:23:59.218Z,66.05
2023-03-06T18:26:28.203Z,66.63
2023-03-06T18:28:57.559Z,66.41
2023-03-06T18:31:27.892Z,66.34
2023-03-06T18:33:59.991Z,66.39
2023-03-06T18:36:29.399Z,66.50
2023-03-06T18:38:56.451Z,66.63
2023-03-06T18:41:23.325Z,66.58
2023-03-06T18:43:54.303Z,66.71
2023-03-06T18:46:21.551Z,66.83
2023-03-06T18:48:48.265Z,67.07
2023-03-06T18:51:15.793Z,66.71
2023-03-06T18:53:42.791Z,66.87
2023-03-06T18:56:16.185Z,66.97
2023-03-06T18:58:43.670Z,66.99
2023-03-06T19:01:10.899Z,67.15
2023-03-06T19:03:37.382Z,67.30
2023-03-06T19:06:06.717Z,67.18
2023-03-06T19:08:33.290Z,67.24
2023-03-06T19:11:06.264Z,67.35
2023-03-06T19:13:32.865Z,67.60
2023-03-06T19:15:59.677Z,67.46
2023-03-06T19:18:28.031Z,67.32
2023-03-06T19:20:56.515Z,67.49
2023-03-06T19:23:23.130Z,67.43
2023-03-06T19:26:00.319Z,67.38
2023-03-06T19:28:27.791Z,67.42
2023-03-06T19:30:54.372Z,67.48
2023-03-06T19:33:20.860Z,67.26
2023-03-06T19:35:47.946Z,67.71
2023-03-06T19:38:15.526Z,67.35
2023-03-06T19:40:49.389Z,67.48
2023-03-06T19:43:15.934Z,67.24
2023-03-06T19:45:43.973Z,67.01
2023-03-06T19:48:12.420Z,67.47
2023-03-06T19:50:40.630Z,67.22
2023-03-06T19:53:07.866Z,67.23
2023-03-06T19:55:34.423Z,66.94
2023-03-06T19:58:00.953Z,67.38
2023-03-06T20:00:27.660Z,67.20
2023-03-06T20:02:54.097Z,67.44
2023-03-06T20:05:20.575Z,67.20
2023-03-06T20:07:47.109Z,66.91
2023-03-06T20:10:14.952Z,67.20
2023-03-06T20:12:41.557Z,67.42
2023-03-06T20:15:08.599Z,67.21
2023-03-06T20:17:35.778Z,67.08
2023-03-06T20:20:02.652Z,66.94
2023-03-06T20:22:29.091Z,66.99
2023-03-06T20:24:55.567Z,67.28
2023-03-06T20:27:22.018Z,67.00
2023-03-06T20:29:48.489Z,66.99
2023-03-06T20:32:15.108Z,67.18
2023-03-06T20:34:41.733Z,66.93
2023-03-06T20:37:08.977Z,67.19
2023-03-06T20:39:35.966Z,66.92
2023-03-06T20:42:05.081Z,67.18
2023-03-06T20:44:31.882Z,66.95
2023-03-06T20:46:58.375Z,66.88
2023-03-06T20:49:27.172Z,66.95
2023-03-06T20:51:53.973Z,66.48
2023-03-06T20:54:20.526Z,67.08
2023-03-06T20:56:48.953Z,66.95
2023-03-06T20:59:15.865Z,66.81
2023-03-06T21:01:44.534Z,66.74
2023-03-06T21:04:13.942Z,66.90
2023-03-06T21:06:43.943Z,66.83
2023-03-06T21:09:11.279Z,66.67
2023-03-06T21:11:38.195Z,66.57
2023-03-06T21:14:05.384Z,66.63
2023-03-06T21:16:31.970Z,66.79
2023-03-06T21:19:00.101Z,66.82
2023-03-06T21:21:30.559Z,66.75
2023-03-06T21:23:57.582Z,67.00
2023-03-06T21:26:27.039Z,66.87
2023-03-06T21:28:53.930Z,66.94
2023-03-06T21:31:22.135Z,67.02
2023-03-06T21:33:50.169Z,66.83
2023-03-06T21:36:18.730Z,67.32
2023-03-06T21:38:46.489Z,66.93
2023-03-06T21:41:17.328Z,67.19
2023-03-06T21:43:46.606Z,66.94
2023-03-06T21:46:13.636Z,66.72
2023-03-06T21:48:40.196Z,66.70
2023-03-06T21:51:09.181Z,66.79
2023-03-06T21:53:36.763Z,66.99
2023-03-06T21:56:04.123Z,66.83
2023-03-06T21:58:30.970Z,66.75
2023-03-06T22:00:57.787Z,67.21
2023-03-06T22:03:24.580Z,66.84
2023-03-06T22:05:52.080Z,66.84
2023-03-06T22:08:21.272Z,67.08
2023-03-06T22:10:48.873Z,67.05
2023-03-06T22:13:15.788Z,67.03
2023-03-06T22:15:55.152Z,67.20
2023-03-06T22:18:21.586Z,67.06
2023-03-06T22:20:48.043Z,67.11
2023-03-06T22:23:14.543Z,67.14
2023-03-06T22:25:41.139Z,67.19
2023-03-06T22:28:07.723Z,66.97
2023-03-06T22:30:34.181Z,67.00
2023-03-06T22:33:00.645Z,67.44
2023-03-06T22:35:27.141Z,67.19
2023-03-06T22:37:53.578Z,67.36
2023-03-06T22:40:20.025Z,67.39
2023-03-06T22:42:46.512Z,67.21
2023-03-06T22:45:13.035Z,67.56
2023-03-06T22:47:39.661Z,67.64
2023-03-06T22:50:06.782Z,67.50
2023-03-06T22:52:33.382Z,67.69
2023-03-06T22:54:59.760Z,67.78
2023-03-06T22:57:26.436Z,67.67
2023-03-06T22:59:52.878Z,67.79
2023-03-06T23:02:19.304Z,67.66
2023-03-06T23:04:52.235Z,67.83
2023-03-06T23:07:20.007Z,67.97
2023-03-06T23:09:46.970Z,67.63
2023-03-06T23:12:13.604Z,68.00
2023-03-06T23:14:40.146Z,67.81
2023-03-06T23:17:06.563Z,67.86
2023-03-06T23:19:32.949Z,68.06
2023-03-06T23:21:59.352Z,68.11
2023-03-06T23:24:25.797Z,68.19
2023-03-06T23:26:52.156Z,68.08
2023-03-06T23:29:18.545Z,68.08
2023-03-06T23:31:44.930Z,67.87
2023-03-06T23:34:11.616Z,68.04
2023-03-06T23:36:37.993Z,68.03
2023-03-06T23:39:04.469Z,68.17
2023-03-06T23:41:30.890Z,68.02
2023-03-06T23:43:58.490Z,68.15
2023-03-06T23:46:24.979Z,68.29
2023-03-06T23:48:52.228Z,68.42
2023-03-06T23:51:20.590Z,68.38
2023-03-06T23:53:48.180Z,68.29
2023-03-06T23:56:15.256Z,68.60
2023-03-06T23:58:41.762Z,68.49
